sensor_id;sensor_type;location;lat;lon;timestamp;pressure;altitude;pressure_sealevel;temperature;humidity
7836;BME280;3963;42.658;23.298;2022-12-29T00:00:11;58692.03;;;4.30;100.00
7836;BME280;3963;42.658;23.298;2022-12-29T00:02:38;58684.44;;;4.32;100.00
7836;BME280;3963;42.658;23.298;2022-12-29T00:05:06;58697.88;;;4.35;100.00
7836;BME280;3963;42.658;23.298;2022-12-29T00:07:34;58705.19;;;4.40;100.00
7836;BME280;3963;42.658;23.298;2022-12-29T00:10:02;58683.13;;;4.38;100.00
7836;BME280;3963;42.658;23.298;2022-12-29T00:12:30;58737.19;;;4.46;100.00
7836;BME280;3963;42.658;23.298;2022-12-29T00:15:19;58717.47;;;4.39;100.00
7836;BME280;3963;42.658;23.298;2022-12-29T00:18:03;58740.09;;;4.41;100.00
7836;BME280;3963;42.658;23.298;2022-12-29T00:20:33;58668.91;;;4.42;100.00
7836;BME280;3963;42.658;23.298;2022-12-29T00:23:19;58728.25;;;4.40;100.00
7836;BME280;3963;42.658;23.298;2022-12-29T00:26:05;58689.19;;;4.37;100.00
7836;BME280;3963;42.658;23.298;2022-12-29T00:28:52;58697.50;;;4.40;100.00
7836;BME280;3963;42.658;23.298;2022-12-29T00:31:37;58713.94;;;4.41;100.00
7836;BME280;3963;42.658;23.298;2022-12-29T00:34:21;58730.38;;;4.57;100.00
7836;BME280;3963;42.658;23.298;2022-12-29T00:37:05;58731.97;;;4.58;100.00
7836;BME280;3963;42.658;23.298;2022-12-29T00:39:35;58749.38;;;4.58;100.00
7836;BME280;3963;42.658;23.298;2022-12-29T00:42:19;58710.69;;;4.35;100.00
7836;BME280;3963;42.658;23.298;2022-12-29T00:45:04;58700.69;;;4.43;100.00
7836;BME280;3963;42.658;23.298;2022-12-29T00:47:31;58728.34;;;4.42;100.00
7836;BME280;3963;42.658;23.298;2022-12-29T00:49:58;58684.59;;;4.37;100.00
7836;BME280;3963;42.658;23.298;2022-12-29T00:52:25;58704.16;;;4.39;100.00
7836;BME280;3963;42.658;23.298;2022-12-29T00:54:53;58714.13;;;4.46;100.00
7836;BME280;3963;42.658;23.298;2022-12-29T00:57:20;58719.25;;;4.46;100.00
7836;BME280;3963;42.658;23.298;2022-12-29T00:59:48;58743.53;;;4.52;100.00
7836;BME280;3963;42.658;23.298;2022-12-29T01:02:15;58715.81;;;4.50;100.00
7836;BME280;3963;42.658;23.298;2022-12-29T01:04:43;58784.47;;;4.64;100.00
7836;BME280;3963;42.658;23.298;2022-12-29T01:07:09;58716.69;;;4.61;100.00
7836;BME280;3963;42.658;23.298;2022-12-29T01:09:36;58731.63;;;4.63;100.00
7836;BME280;3963;42.658;23.298;2022-12-29T01:12:22;58756.03;;;4.71;100.00
7836;BME280;3963;42.658;23.298;2022-12-29T01:15:04;58760.69;;;4.73;100.00
7836;BME280;3963;42.658;23.298;2022-12-29T01:17:31;58761.31;;;4.76;100.00
7836;BME280;3963;42.658;23.298;2022-12-29T01:19:58;58755.84;;;4.66;100.00
7836;BME280;3963;42.658;23.298;2022-12-29T01:22:25;58710.31;;;4.69;100.00
7836;BME280;3963;42.658;23.298;2022-12-29T01:24:52;58744.88;;;4.75;100.00
7836;BME280;3963;42.658;23.298;2022-12-29T01:27:21;58750.44;;;4.73;100.00
7836;BME280;3963;42.658;23.298;2022-12-29T01:29:48;58719.31;;;4.63;100.00
7836;BME280;3963;42.658;23.298;2022-12-29T01:32:16;58750.63;;;4.64;100.00
7836;BME280;3963;42.658;23.298;2022-12-29T01:34:44;58743.81;;;4.60;100.00
7836;BME280;3963;42.658;23.298;2022-12-29T01:37:12;58745.03;;;4.51;100.00
7836;BME280;3963;42.658;23.298;2022-12-29T01:39:39;58737.81;;;4.49;100.00
7836;BME280;3963;42.658;23.298;2022-12-29T01:42:12;58719.41;;;4.51;100.00
7836;BME280;3963;42.658;23.298;2022-12-29T01:44:54;58722.44;;;4.49;100.00
7836;BME280;3963;42.658;23.298;2022-12-29T01:47:27;58702.47;;;4.50;100.00
7836;BME280;3963;42.658;23.298;2022-12-29T01:49:57;58703.53;;;4.51;100.00
7836;BME280;3963;42.658;23.298;2022-12-29T01:52:27;58733.66;;;4.62;100.00
7836;BME280;3963;42.658;23.298;2022-12-29T01:54:58;58711.63;;;4.63;100.00
7836;BME280;3963;42.658;23.298;2022-12-29T01:57:29;58695.91;;;4.53;100.00
7836;BME280;3963;42.658;23.298;2022-12-29T02:00:04;58732.69;;;4.49;100.00
7836;BME280;3963;42.658;23.298;2022-12-29T02:02:33;58717.66;;;4.44;100.00
7836;BME280;3963;42.658;23.298;2022-12-29T02:05:04;58704.50;;;4.49;100.00
7836;BME280;3963;42.658;23.298;2022-12-29T02:07:33;58686.47;;;4.46;100.00
7836;BME280;3963;42.658;23.298;2022-12-29T02:10:01;58730.47;;;4.44;100.00
7836;BME280;3963;42.658;23.298;2022-12-29T02:12:28;58679.31;;;4.47;100.00
7836;BME280;3963;42.658;23.298;2022-12-29T02:14:59;58717.31;;;4.49;100.00
7836;BME280;3963;42.658;23.298;2022-12-29T02:17:48;58755.22;;;4.48;100.00
7836;BME280;3963;42.658;23.298;2022-12-29T02:20:37;58712.34;;;4.54;100.00
7836;BME280;3963;42.658;23.298;2022-12-29T02:23:26;58741.53;;;4.53;100.00
7836;BME280;3963;42.658;23.298;2022-12-29T02:26:28;58720.47;;;4.67;100.00
7836;BME280;3963;42.658;23.298;2022-12-29T02:32:05;58757.78;;;4.63;100.00
7836;BME280;3963;42.658;23.298;2022-12-29T02:34:41;58716.34;;;4.65;100.00
7836;BME280;3963;42.658;23.298;2022-12-29T02:37:19;58743.47;;;4.64;100.00
7836;BME280;3963;42.658;23.298;2022-12-29T02:39:53;58744.34;;;4.75;100.00
7836;BME280;3963;42.658;23.298;2022-12-29T02:42:31;58708.28;;;4.70;100.00
7836;BME280;3963;42.658;23.298;2022-12-29T02:45:05;58740.81;;;4.76;100.00
7836;BME280;3963;42.658;23.298;2022-12-29T02:47:40;58750.28;;;4.68;100.00
7836;BME280;3963;42.658;23.298;2022-12-29T02:50:14;58783.78;;;4.59;100.00
7836;BME280;3963;42.658;23.298;2022-12-29T02:52:48;58750.53;;;4.61;100.00
7836;BME280;3963;42.658;23.298;2022-12-29T02:55:17;58725.06;;;4.52;100.00
7836;BME280;3963;42.658;23.298;2022-12-29T02:57:43;58713.94;;;4.56;100.00
7836;BME280;3963;42.658;23.298;2022-12-29T03:00:12;58696.47;;;4.39;100.00
7836;BME280;3963;42.658;23.298;2022-12-29T03:03:08;58675.50;;;3.97;100.00
7836;BME280;3963;42.658;23.298;2022-12-29T03:05:57;58659.25;;;4.16;100.00
7836;BME280;3963;42.658;23.298;2022-12-29T03:08:33;58699.09;;;4.27;100.00
7836;BME280;3963;42.658;23.298;2022-12-29T03:11:06;58720.47;;;4.37;100.00
7836;BME280;3963;42.658;23.298;2022-12-29T03:13:57;58668.44;;;4.44;100.00
7836;BME280;3963;42.658;23.298;2022-12-29T03:16:45;58693.44;;;4.41;100.00
7836;BME280;3963;42.658;23.298;2022-12-29T03:19:17;58717.75;;;4.47;100.00
7836;BME280;3963;42.658;23.298;2022-12-29T03:21:49;58710.41;;;4.42;100.00
7836;BME280;3963;42.658;23.298;2022-12-29T03:24:38;58701.84;;;4.46;100.00
7836;BME280;3963;42.658;23.298;2022-12-29T03:27:09;58720.84;;;4.33;100.00
7836;BME280;3963;42.658;23.298;2022-12-29T03:29:44;58696.19;;;4.31;100.00
7836;BME280;3963;42.658;23.298;2022-12-29T03:32:19;58642.13;;;4.09;100.00
7836;BME280;3963;42.658;23.298;2022-12-29T03:34:49;58682.06;;;4.23;100.00
7836;BME280;3963;42.658;23.298;2022-12-29T03:37:20;58667.56;;;4.04;100.00
7836;BME280;3963;42.658;23.298;2022-12-29T03:39:48;58664.22;;;4.11;100.00
7836;BME280;3963;42.658;23.298;2022-12-29T03:42:17;58677.53;;;4.11;100.00
7836;BME280;3963;42.658;23.298;2022-12-29T03:44:46;58645.31;;;3.98;100.00
7836;BME280;3963;42.658;23.298;2022-12-29T03:47:14;58651.03;;;3.86;100.00
7836;BME280;3963;42.658;23.298;2022-12-29T03:49:41;58652.19;;;3.89;100.00
7836;BME280;3963;42.658;23.298;2022-12-29T03:52:09;58636.22;;;3.72;100.00
7836;BME280;3963;42.658;23.298;2022-12-29T03:54:36;58584.41;;;3.54;100.00
7836;BME280;3963;42.658;23.298;2022-12-29T03:57:03;58611.31;;;3.63;100.00
7836;BME280;3963;42.658;23.298;2022-12-29T03:59:31;58618.47;;;3.62;100.00
7836;BME280;3963;42.658;23.298;2022-12-29T04:01:58;58639.56;;;3.65;100.00
7836;BME280;3963;42.658;23.298;2022-12-29T04:04:25;58612.72;;;3.59;100.00
7836;BME280;3963;42.658;23.298;2022-12-29T04:06:54;58583.00;;;3.43;100.00
7836;BME280;3963;42.658;23.298;2022-12-29T04:09:22;58573.91;;;3.32;100.00
7836;BME280;3963;42.658;23.298;2022-12-29T04:11:49;58564.56;;;3.28;100.00
7836;BME280;3963;42.658;23.298;2022-12-29T04:14:16;58569.69;;;3.13;100.00
7836;BME280;3963;42.658;23.298;2022-12-29T04:16:43;58520.19;;;2.88;100.00
7836;BME280;3963;42.658;23.298;2022-12-29T04:19:10;58420.28;;;2.81;100.00
7836;BME280;3963;42.658;23.298;2022-12-29T04:21:38;58517.56;;;2.86;100.00
7836;BME280;3963;42.658;23.298;2022-12-29T04:24:04;58538.63;;;2.89;100.00
7836;BME280;3963;42.658;23.298;2022-12-29T04:26:34;58528.41;;;2.89;100.00
7836;BME280;3963;42.658;23.298;2022-12-29T04:29:01;58513.06;;;2.89;100.00
7836;BME280;3963;42.658;23.298;2022-12-29T04:31:28;58534.91;;;2.85;100.00
7836;BME280;3963;42.658;23.298;2022-12-29T04:33:55;58526.19;;;2.84;100.00
7836;BME280;3963;42.658;23.298;2022-12-29T04:36:23;58505.94;;;2.74;100.00
7836;BME280;3963;42.658;23.298;2022-12-29T04:38:50;58490.16;;;2.76;100.00
7836;BME280;3963;42.658;23.298;2022-12-29T04:41:17;58475.44;;;2.79;100.00
7836;BME280;3963;42.658;23.298;2022-12-29T04:43:46;58536.59;;;2.74;100.00
7836;BME280;3963;42.658;23.298;2022-12-29T04:46:15;58501.25;;;2.72;100.00
7836;BME280;3963;42.658;23.298;2022-12-29T04:48:42;58486.63;;;2.78;100.00
7836;BME280;3963;42.658;23.298;2022-12-29T04:51:09;58492.00;;;2.71;100.00
7836;BME280;3963;42.658;23.298;2022-12-29T04:53:37;58494.72;;;2.61;100.00
7836;BME280;3963;42.658;23.298;2022-12-29T04:56:07;58363.34;;;2.29;100.00
7836;BME280;3963;42.658;23.298;2022-12-29T04:58:34;58454.72;;;2.57;100.00
7836;BME280;3963;42.658;23.298;2022-12-29T05:01:04;58483.34;;;2.58;100.00
7836;BME280;3963;42.658;23.298;2022-12-29T05:03:31;58482.56;;;2.64;100.00
7836;BME280;3963;42.658;23.298;2022-12-29T05:05:58;58489.78;;;2.66;100.00
7836;BME280;3963;42.658;23.298;2022-12-29T05:08:25;58477.00;;;2.66;100.00
7836;BME280;3963;42.658;23.298;2022-12-29T05:10:52;58482.03;;;2.49;100.00
7836;BME280;3963;42.658;23.298;2022-12-29T05:13:19;58483.09;;;2.50;100.00
7836;BME280;3963;42.658;23.298;2022-12-29T05:15:49;58486.00;;;2.60;100.00
7836;BME280;3963;42.658;23.298;2022-12-29T05:18:19;58480.28;;;2.57;100.00
7836;BME280;3963;42.658;23.298;2022-12-29T05:20:46;58502.31;;;2.73;100.00
7836;BME280;3963;42.658;23.298;2022-12-29T05:23:13;58507.41;;;2.73;100.00
7836;BME280;3963;42.658;23.298;2022-12-29T05:25:42;58436.22;;;2.25;100.00
7836;BME280;3963;42.658;23.298;2022-12-29T05:28:11;58500.75;;;2.87;100.00
7836;BME280;3963;42.658;23.298;2022-12-29T05:30:38;58526.09;;;2.96;100.00
7836;BME280;3963;42.658;23.298;2022-12-29T05:33:06;58508.50;;;3.04;100.00
7836;BME280;3963;42.658;23.298;2022-12-29T05:35:34;58545.16;;;3.14;100.00
7836;BME280;3963;42.658;23.298;2022-12-29T05:38:01;58536.94;;;3.14;100.00
7836;BME280;3963;42.658;23.298;2022-12-29T05:40:28;58555.03;;;3.19;100.00
7836;BME280;3963;42.658;23.298;2022-12-29T05:42:55;58588.72;;;3.17;100.00
7836;BME280;3963;42.658;23.298;2022-12-29T05:45:21;58520.03;;;3.27;100.00
7836;BME280;3963;42.658;23.298;2022-12-29T05:47:50;58565.88;;;3.37;100.00
7836;BME280;3963;42.658;23.298;2022-12-29T05:50:17;58584.50;;;3.42;100.00
7836;BME280;3963;42.658;23.298;2022-12-29T05:52:45;58553.19;;;3.39;100.00
7836;BME280;3963;42.658;23.298;2022-12-29T05:55:12;58548.00;;;3.22;100.00
7836;BME280;3963;42.658;23.298;2022-12-29T05:57:39;58577.34;;;3.28;100.00
7836;BME280;3963;42.658;23.298;2022-12-29T06:00:08;58567.91;;;3.36;100.00
7836;BME280;3963;42.658;23.298;2022-12-29T06:02:37;58593.94;;;3.34;100.00
7836;BME280;3963;42.658;23.298;2022-12-29T06:05:04;58548.53;;;3.22;100.00
7836;BME280;3963;42.658;23.298;2022-12-29T06:07:32;58595.25;;;3.43;100.00
7836;BME280;3963;42.658;23.298;2022-12-29T06:10:00;58593.78;;;3.58;100.00
7836;BME280;3963;42.658;23.298;2022-12-29T06:12:27;58625.88;;;3.69;100.00
7836;BME280;3963;42.658;23.298;2022-12-29T06:14:54;58633.47;;;3.81;100.00
7836;BME280;3963;42.658;23.298;2022-12-29T06:17:22;58618.28;;;3.86;100.00
7836;BME280;3963;42.658;23.298;2022-12-29T06:19:48;58642.66;;;3.95;100.00
7836;BME280;3963;42.658;23.298;2022-12-29T06:22:16;58661.28;;;4.01;100.00
7836;BME280;3963;42.658;23.298;2022-12-29T06:24:43;58635.25;;;4.03;100.00
7836;BME280;3963;42.658;23.298;2022-12-29T06:27:12;58612.47;;;3.96;100.00
7836;BME280;3963;42.658;23.298;2022-12-29T06:29:41;58663.13;;;3.95;100.00
7836;BME280;3963;42.658;23.298;2022-12-29T06:32:09;58614.06;;;3.82;100.00
7836;BME280;3963;42.658;23.298;2022-12-29T06:34:36;58642.56;;;3.92;100.00
7836;BME280;3963;42.658;23.298;2022-12-29T06:37:04;58654.66;;;4.02;100.00
7836;BME280;3963;42.658;23.298;2022-12-29T06:39:31;58675.59;;;4.14;100.00
7836;BME280;3963;42.658;23.298;2022-12-29T06:41:58;58665.44;;;4.17;100.00
7836;BME280;3963;42.658;23.298;2022-12-29T06:44:26;58672.97;;;4.12;100.00
7836;BME280;3963;42.658;23.298;2022-12-29T06:46:53;58663.94;;;4.03;100.00
7836;BME280;3963;42.658;23.298;2022-12-29T06:49:21;58672.44;;;4.11;100.00
7836;BME280;3963;42.658;23.298;2022-12-29T06:51:48;58682.13;;;4.25;100.00
7836;BME280;3963;42.658;23.298;2022-12-29T06:54:14;58690.28;;;4.23;100.00
7836;BME280;3963;42.658;23.298;2022-12-29T06:56:41;58682.59;;;4.38;100.00
7836;BME280;3963;42.658;23.298;2022-12-29T06:59:09;58713.59;;;4.45;100.00
7836;BME280;3963;42.658;23.298;2022-12-29T07:01:37;58720.84;;;4.62;100.00
7836;BME280;3963;42.658;23.298;2022-12-29T07:04:05;58745.78;;;4.71;100.00
7836;BME280;3963;42.658;23.298;2022-12-29T07:06:33;58766.63;;;4.81;100.00
7836;BME280;3963;42.658;23.298;2022-12-29T07:09:00;58756.56;;;4.86;100.00
7836;BME280;3963;42.658;23.298;2022-12-29T07:11:27;58793.88;;;4.97;100.00
7836;BME280;3963;42.658;23.298;2022-12-29T07:13:56;58792.09;;;5.06;100.00
7836;BME280;3963;42.658;23.298;2022-12-29T07:16:24;58803.25;;;5.16;100.00
7836;BME280;3963;42.658;23.298;2022-12-29T07:18:54;58812.97;;;5.16;100.00
7836;BME280;3963;42.658;23.298;2022-12-29T07:21:21;58814.22;;;5.22;100.00
7836;BME280;3963;42.658;23.298;2022-12-29T07:23:49;58822.63;;;5.42;100.00
7836;BME280;3963;42.658;23.298;2022-12-29T07:26:16;58835.53;;;5.44;100.00
7836;BME280;3963;42.658;23.298;2022-12-29T07:28:44;58828.22;;;5.40;100.00
7836;BME280;3963;42.658;23.298;2022-12-29T07:31:13;58796.72;;;5.34;100.00
7836;BME280;3963;42.658;23.298;2022-12-29T07:33:41;58835.38;;;5.25;100.00
7836;BME280;3963;42.658;23.298;2022-12-29T07:36:11;58841.22;;;5.45;100.00
7836;BME280;3963;42.658;23.298;2022-12-29T07:38:40;58829.97;;;5.46;100.00
7836;BME280;3963;42.658;23.298;2022-12-29T07:41:06;58839.88;;;5.51;100.00
7836;BME280;3963;42.658;23.298;2022-12-29T07:43:34;58863.78;;;5.59;100.00
7836;BME280;3963;42.658;23.298;2022-12-29T07:46:02;58893.09;;;5.75;100.00
7836;BME280;3963;42.658;23.298;2022-12-29T07:48:29;58849.78;;;5.55;100.00
7836;BME280;3963;42.658;23.298;2022-12-29T07:50:59;58871.06;;;5.61;100.00
7836;BME280;3963;42.658;23.298;2022-12-29T07:53:27;58864.69;;;5.55;100.00
7836;BME280;3963;42.658;23.298;2022-12-29T07:55:55;58902.03;;;5.81;100.00
7836;BME280;3963;42.658;23.298;2022-12-29T07:58:22;58897.81;;;6.06;100.00
7836;BME280;3963;42.658;23.298;2022-12-29T08:00:53;58948.22;;;6.22;100.00
7836;BME280;3963;42.658;23.298;2022-12-29T08:03:20;58920.13;;;5.98;100.00
7836;BME280;3963;42.658;23.298;2022-12-29T08:05:47;58865.75;;;6.00;100.00
7836;BME280;3963;42.658;23.298;2022-12-29T08:08:15;58901.78;;;6.02;100.00
7836;BME280;3963;42.658;23.298;2022-12-29T08:10:45;58923.75;;;6.13;100.00
7836;BME280;3963;42.658;23.298;2022-12-29T08:13:12;58953.28;;;6.34;100.00
7836;BME280;3963;42.658;23.298;2022-12-29T08:15:39;58960.34;;;6.46;100.00
7836;BME280;3963;42.658;23.298;2022-12-29T08:18:06;58971.88;;;6.66;100.00
7836;BME280;3963;42.658;23.298;2022-12-29T08:20:33;58996.28;;;6.58;100.00
7836;BME280;3963;42.658;23.298;2022-12-29T08:23:00;58968.78;;;6.66;100.00
7836;BME280;3963;42.658;23.298;2022-12-29T08:25:28;58968.88;;;6.54;100.00
7836;BME280;3963;42.658;23.298;2022-12-29T08:27:56;58990.69;;;6.45;100.00
7836;BME280;3963;42.658;23.298;2022-12-29T08:30:23;58989.78;;;6.64;100.00
7836;BME280;3963;42.658;23.298;2022-12-29T08:32:51;59012.31;;;6.61;100.00
7836;BME280;3963;42.658;23.298;2022-12-29T08:35:18;58990.41;;;6.67;100.00
7836;BME280;3963;42.658;23.298;2022-12-29T08:37:45;58968.16;;;6.78;100.00
7836;BME280;3963;42.658;23.298;2022-12-29T08:40:14;58998.13;;;6.82;100.00
7836;BME280;3963;42.658;23.298;2022-12-29T08:42:41;59041.59;;;6.74;100.00
7836;BME280;3963;42.658;23.298;2022-12-29T08:45:10;58986.16;;;6.78;100.00
7836;BME280;3963;42.658;23.298;2022-12-29T08:47:37;59036.25;;;6.69;100.00
7836;BME280;3963;42.658;23.298;2022-12-29T08:50:04;59000.16;;;6.52;100.00
7836;BME280;3963;42.658;23.298;2022-12-29T08:52:31;58946.63;;;6.50;100.00
7836;BME280;3963;42.658;23.298;2022-12-29T08:54:58;59008.50;;;6.55;100.00
7836;BME280;3963;42.658;23.298;2022-12-29T08:57:26;58944.22;;;6.55;100.00
7836;BME280;3963;42.658;23.298;2022-12-29T08:59:53;58969.22;;;6.49;100.00
7836;BME280;3963;42.658;23.298;2022-12-29T09:02:21;58997.16;;;6.54;100.00
7836;BME280;3963;42.658;23.298;2022-12-29T09:04:48;58978.97;;;6.49;100.00
7836;BME280;3963;42.658;23.298;2022-12-29T09:07:15;58965.25;;;6.38;100.00
7836;BME280;3963;42.658;23.298;2022-12-29T09:09:43;58942.09;;;6.38;100.00
7836;BME280;3963;42.658;23.298;2022-12-29T09:12:10;58929.88;;;5.97;100.00
7836;BME280;3963;42.658;23.298;2022-12-29T09:14:37;58921.91;;;6.04;100.00
7836;BME280;3963;42.658;23.298;2022-12-29T09:17:05;58915.53;;;5.98;100.00
7836;BME280;3963;42.658;23.298;2022-12-29T09:19:51;58957.53;;;6.24;100.00
7836;BME280;3963;42.658;23.298;2022-12-29T09:22:18;58980.94;;;6.46;100.00
7836;BME280;3963;42.658;23.298;2022-12-29T09:24:46;58951.16;;;6.47;100.00
7836;BME280;3963;42.658;23.298;2022-12-29T09:27:14;59063.50;;;6.68;100.00
7836;BME280;3963;42.658;23.298;2022-12-29T09:29:42;59029.09;;;6.84;100.00
7836;BME280;3963;42.658;23.298;2022-12-29T09:32:10;59036.72;;;6.96;100.00
7836;BME280;3963;42.658;23.298;2022-12-29T09:34:37;59041.78;;;7.08;100.00
7836;BME280;3963;42.658;23.298;2022-12-29T09:37:06;59071.41;;;7.17;100.00
7836;BME280;3963;42.658;23.298;2022-12-29T09:39:34;59081.72;;;7.32;100.00
7836;BME280;3963;42.658;23.298;2022-12-29T09:42:05;59076.38;;;7.27;100.00
7836;BME280;3963;42.658;23.298;2022-12-29T09:44:46;59123.53;;;7.35;100.00
7836;BME280;3963;42.658;23.298;2022-12-29T09:47:16;59083.69;;;7.29;100.00
7836;BME280;3963;42.658;23.298;2022-12-29T09:49:46;59098.22;;;7.33;100.00
7836;BME280;3963;42.658;23.298;2022-12-29T09:52:20;59055.06;;;7.36;100.00
7836;BME280;3963;42.658;23.298;2022-12-29T09:54:53;59102.50;;;7.37;100.00
7836;BME280;3963;42.658;23.298;2022-12-29T09:57:24;59084.38;;;7.34;100.00
7836;BME280;3963;42.658;23.298;2022-12-29T09:59:55;59103.13;;;7.40;100.00
7836;BME280;3963;42.658;23.298;2022-12-29T10:02:37;59120.34;;;7.61;100.00
7836;BME280;3963;42.658;23.298;2022-12-29T10:05:18;59129.31;;;7.67;100.00
7836;BME280;3963;42.658;23.298;2022-12-29T10:07:53;59123.47;;;7.61;100.00
7836;BME280;3963;42.658;23.298;2022-12-29T10:10:33;59131.00;;;7.71;100.00
7836;BME280;3963;42.658;23.298;2022-12-29T10:13:10;59123.63;;;7.81;100.00
7836;BME280;3963;42.658;23.298;2022-12-29T10:15:50;59124.25;;;7.69;100.00
7836;BME280;3963;42.658;23.298;2022-12-29T10:18:36;59159.25;;;7.83;100.00
7836;BME280;3963;42.658;23.298;2022-12-29T10:21:09;59159.53;;;7.76;100.00
7836;BME280;3963;42.658;23.298;2022-12-29T10:23:45;59144.16;;;7.64;100.00
7836;BME280;3963;42.658;23.298;2022-12-29T10:26:15;59137.66;;;7.70;100.00
7836;BME280;3963;42.658;23.298;2022-12-29T10:28:47;59173.13;;;7.82;100.00
7836;BME280;3963;42.658;23.298;2022-12-29T10:31:18;59170.38;;;7.91;100.00
7836;BME280;3963;42.658;23.298;2022-12-29T10:33:49;59172.31;;;8.03;100.00
7836;BME280;3963;42.658;23.298;2022-12-29T10:36:18;59189.91;;;8.05;100.00
7836;BME280;3963;42.658;23.298;2022-12-29T10:39:03;59218.00;;;8.26;100.00
7836;BME280;3963;42.658;23.298;2022-12-29T10:41:36;59255.56;;;8.67;100.00
7836;BME280;3963;42.658;23.298;2022-12-29T10:44:09;59349.19;;;9.16;100.00
7836;BME280;3963;42.658;23.298;2022-12-29T10:46:39;59410.59;;;9.72;100.00
7836;BME280;3963;42.658;23.298;2022-12-29T10:49:14;59429.75;;;10.02;100.00
7836;BME280;3963;42.658;23.298;2022-12-29T10:51:44;59526.44;;;10.74;100.00
7836;BME280;3963;42.658;23.298;2022-12-29T10:54:18;59609.69;;;11.28;100.00
7836;BME280;3963;42.658;23.298;2022-12-29T10:56:51;59611.28;;;11.58;100.00
7836;BME280;3963;42.658;23.298;2022-12-29T10:59:21;59644.06;;;11.62;100.00
7836;BME280;3963;42.658;23.298;2022-12-29T11:01:57;59631.84;;;11.39;100.00
7836;BME280;3963;42.658;23.298;2022-12-29T11:04:40;59632.91;;;11.54;100.00
7836;BME280;3963;42.658;23.298;2022-12-29T11:07:11;59516.97;;;10.70;100.00
7836;BME280;3963;42.658;23.298;2022-12-29T11:09:41;59627.66;;;11.23;100.00
7836;BME280;3963;42.658;23.298;2022-12-29T11:12:21;59687.91;;;11.84;100.00
7836;BME280;3963;42.658;23.298;2022-12-29T11:15:02;59696.75;;;12.00;100.00
7836;BME280;3963;42.658;23.298;2022-12-29T11:17:29;59789.47;;;12.53;100.00
7836;BME280;3963;42.658;23.298;2022-12-29T11:19:56;59773.25;;;12.64;100.00
7836;BME280;3963;42.658;23.298;2022-12-29T11:22:24;59763.13;;;12.57;100.00
7836;BME280;3963;42.658;23.298;2022-12-29T11:24:55;59835.78;;;12.99;100.00
7836;BME280;3963;42.658;23.298;2022-12-29T11:27:32;59874.41;;;13.32;100.00
7836;BME280;3963;42.658;23.298;2022-12-29T11:29:59;59831.00;;;12.97;100.00
7836;BME280;3963;42.658;23.298;2022-12-29T11:32:27;59865.00;;;13.16;100.00
7836;BME280;3963;42.658;23.298;2022-12-29T11:34:56;59896.38;;;13.36;100.00
7836;BME280;3963;42.658;23.298;2022-12-29T11:37:27;59915.81;;;13.57;100.00
7836;BME280;3963;42.658;23.298;2022-12-29T11:39:58;59978.97;;;13.77;100.00
7836;BME280;3963;42.658;23.298;2022-12-29T11:42:33;60011.19;;;14.05;100.00
7836;BME280;3963;42.658;23.298;2022-12-29T11:45:05;59982.19;;;14.09;100.00
7836;BME280;3963;42.658;23.298;2022-12-29T11:47:33;59911.31;;;13.62;100.00
7836;BME280;3963;42.658;23.298;2022-12-29T11:50:05;59938.06;;;13.53;100.00
7836;BME280;3963;42.658;23.298;2022-12-29T11:52:36;59943.25;;;13.68;100.00
7836;BME280;3963;42.658;23.298;2022-12-29T11:55:17;59896.91;;;13.22;100.00
7836;BME280;3963;42.658;23.298;2022-12-29T11:57:46;59829.75;;;12.91;100.00
7836;BME280;3963;42.658;23.298;2022-12-29T12:00:18;59749.00;;;11.95;100.00
7836;BME280;3963;42.658;23.298;2022-12-29T12:02:53;59733.91;;;11.93;100.00
7836;BME280;3963;42.658;23.298;2022-12-29T12:05:30;59737.84;;;12.02;100.00
7836;BME280;3963;42.658;23.298;2022-12-29T12:08:04;59645.88;;;11.40;100.00
7836;BME280;3963;42.658;23.298;2022-12-29T12:10:42;59658.94;;;11.57;100.00
7836;BME280;3963;42.658;23.298;2022-12-29T12:13:22;59642.03;;;11.48;100.00
7836;BME280;3963;42.658;23.298;2022-12-29T12:15:56;59669.56;;;11.64;100.00
7836;BME280;3963;42.658;23.298;2022-12-29T12:18:34;59690.59;;;11.72;100.00
7836;BME280;3963;42.658;23.298;2022-12-29T12:21:13;59693.47;;;11.80;100.00
7836;BME280;3963;42.658;23.298;2022-12-29T12:24:04;59672.59;;;11.62;100.00
7836;BME280;3963;42.658;23.298;2022-12-29T12:26:41;59662.94;;;11.53;100.00
7836;BME280;3963;42.658;23.298;2022-12-29T12:29:13;59656.16;;;11.37;100.00
7836;BME280;3963;42.658;23.298;2022-12-29T12:31:46;59620.13;;;11.30;100.00
7836;BME280;3963;42.658;23.298;2022-12-29T12:34:20;59628.72;;;11.24;100.00
7836;BME280;3963;42.658;23.298;2022-12-29T12:37:02;59567.53;;;10.78;100.00
7836;BME280;3963;42.658;23.298;2022-12-29T12:39:42;59551.81;;;10.59;100.00
7836;BME280;3963;42.658;23.298;2022-12-29T12:42:24;59541.00;;;10.46;100.00
7836;BME280;3963;42.658;23.298;2022-12-29T12:45:15;59542.16;;;10.49;100.00
7836;BME280;3963;42.658;23.298;2022-12-29T12:47:52;59560.47;;;10.54;100.00
7836;BME280;3963;42.658;23.298;2022-12-29T12:50:48;59522.34;;;10.45;100.00
7836;BME280;3963;42.658;23.298;2022-12-29T12:53:26;59507.91;;;10.46;100.00
7836;BME280;3963;42.658;23.298;2022-12-29T12:56:10;59551.09;;;10.53;100.00
7836;BME280;3963;42.658;23.298;2022-12-29T12:58:49;59509.94;;;10.46;100.00
7836;BME280;3963;42.658;23.298;2022-12-29T13:01:29;59503.72;;;10.30;100.00
7836;BME280;3963;42.658;23.298;2022-12-29T13:04:12;59485.41;;;10.25;100.00
7836;BME280;3963;42.658;23.298;2022-12-29T13:06:49;59496.13;;;10.21;100.00
7836;BME280;3963;42.658;23.298;2022-12-29T13:09:30;59487.38;;;10.22;100.00
7836;BME280;3963;42.658;23.298;2022-12-29T13:12:10;59481.72;;;9.95;100.00
7836;BME280;3963;42.658;23.298;2022-12-29T13:14:50;59488.97;;;10.09;100.00
7836;BME280;3963;42.658;23.298;2022-12-29T13:17:27;59465.31;;;9.99;100.00
7836;BME280;3963;42.658;23.298;2022-12-29T13:20:02;59470.13;;;10.03;100.00
7836;BME280;3963;42.658;23.298;2022-12-29T13:22:38;59470.31;;;9.94;100.00
7836;BME280;3963;42.658;23.298;2022-12-29T13:25:24;59452.31;;;9.96;100.00
7836;BME280;3963;42.658;23.298;2022-12-29T13:27:58;59453.09;;;9.90;100.00
7836;BME280;3963;42.658;23.298;2022-12-29T13:30:32;59461.41;;;9.76;100.00
7836;BME280;3963;42.658;23.298;2022-12-29T13:33:06;59452.31;;;9.82;100.00
7836;BME280;3963;42.658;23.298;2022-12-29T13:35:50;59422.78;;;9.81;100.00